createdAt,value
2022-12-13T00:01:30.600Z,7.38
2022-12-13T00:04:00.892Z,8.23
2022-12-13T00:06:30.636Z,8.73
2022-12-13T00:08:59.181Z,7.90
2022-12-13T00:11:28.837Z,7.00
2022-12-13T00:13:57.068Z,6.15
2022-12-13T00:16:26.335Z,6.30
2022-12-13T00:18:55.658Z,6.32
2022-12-13T00:21:25.690Z,5.95
2022-12-13T00:23:54.038Z,6.22
2022-12-13T00:26:24.848Z,8.55
2022-12-13T00:28:54.590Z,9.73
2022-12-13T00:31:56.808Z,6.10
2022-12-13T00:34:12.679Z,7.32
2022-12-13T00:36:41.342Z,7.75
2022-12-13T00:39:12.757Z,6.70
2022-12-13T00:41:41.539Z,7.25
2022-12-13T00:44:11.511Z,10.68
2022-12-13T00:46:39.871Z,8.80
2022-12-13T00:49:08.194Z,8.38
2022-12-13T00:51:36.588Z,9.43
2022-12-13T00:54:05.410Z,6.85
2022-12-13T00:56:34.158Z,8.63
2022-12-13T00:59:02.608Z,9.00
2022-12-13T01:01:33.710Z,6.30
2022-12-13T01:04:03.379Z,8.43
2022-12-13T01:06:35.141Z,10.13
2022-12-13T01:09:03.847Z,7.82
2022-12-13T01:11:32.313Z,8.77
2022-12-13T01:14:00.591Z,8.05
2022-12-13T01:16:28.903Z,9.18
2022-12-13T01:18:59.829Z,10.05
2022-12-13T01:21:28.094Z,9.75
2022-12-13T01:24:03.280Z,14.15
2022-12-13T01:26:31.734Z,11.95
2022-12-13T01:28:59.973Z,9.02
2022-12-13T01:31:28.279Z,7.85
2022-12-13T01:33:56.571Z,8.13
2022-12-13T01:36:27.753Z,9.20
2022-12-13T01:38:58.340Z,8.10
2022-12-13T01:41:27.694Z,8.65
2022-12-13T01:44:01.018Z,8.23
2022-12-13T01:46:30.462Z,7.43
2022-12-13T01:49:05.625Z,9.20
2022-12-13T01:51:52.422Z,6.78
2022-12-13T01:54:24.362Z,7.72
2022-12-13T01:57:02.234Z,11.93
2022-12-13T01:59:30.508Z,12.95
2022-12-13T02:02:00.932Z,11.77
2022-12-13T02:04:33.332Z,12.32
2022-12-13T02:07:03.479Z,11.00
2022-12-13T02:09:31.770Z,13.75
2022-12-13T02:11:59.986Z,12.88
2022-12-13T02:14:28.366Z,12.48
2022-12-13T02:17:03.034Z,12.70
2022-12-13T02:20:35.184Z,12.80
2022-12-13T02:23:25.899Z,14.85
2022-12-13T02:26:08.520Z,11.13
2022-12-13T02:28:50.204Z,12.68
2022-12-13T02:31:23.529Z,9.75
2022-12-13T02:33:54.035Z,15.48
2022-12-13T02:36:27.173Z,10.93
2022-12-13T02:38:59.536Z,12.73
2022-12-13T02:41:31.249Z,14.80
2022-12-13T02:44:01.825Z,16.10
2022-12-13T02:46:34.118Z,14.23
2022-12-13T02:49:02.453Z,15.38
2022-12-13T02:51:30.733Z,16.60
2022-12-13T02:53:59.077Z,16.30
2022-12-13T02:56:27.393Z,14.60
2022-12-13T02:58:56.071Z,16.63
2022-12-13T03:01:49.665Z,15.00
2022-12-13T03:04:26.871Z,12.40
2022-12-13T03:07:01.053Z,21.90
2022-12-13T03:09:41.696Z,17.13
2022-12-13T03:12:36.955Z,14.88
2022-12-13T03:15:14.394Z,18.40
2022-12-13T03:17:46.901Z,20.40
2022-12-13T03:20:23.001Z,16.98
2022-12-13T03:22:51.989Z,14.70
2022-12-13T03:25:31.969Z,19.27
2022-12-13T03:28:02.509Z,15.68
2022-12-13T03:30:31.685Z,19.65
2022-12-13T03:33:01.358Z,21.75
2022-12-13T03:35:34.926Z,15.30
2022-12-13T03:38:12.947Z,19.63
2022-12-13T03:40:53.456Z,19.95
2022-12-13T03:43:22.978Z,20.23
2022-12-13T03:45:52.316Z,20.98
2022-12-13T03:48:23.444Z,21.60
2022-12-13T03:50:52.626Z,20.88
2022-12-13T03:53:22.359Z,20.25
2022-12-13T03:56:01.693Z,19.45
2022-12-13T03:58:35.827Z,18.27
2022-12-13T04:01:06.779Z,20.83
2022-12-13T04:03:36.511Z,17.92
2022-12-13T04:06:05.216Z,23.13
2022-12-13T04:08:33.496Z,17.40
2022-12-13T04:11:21.785Z,19.70
2022-12-13T04:13:49.076Z,21.25
2022-12-13T04:16:17.446Z,17.02
2022-12-13T04:18:47.147Z,22.15
2022-12-13T04:21:15.488Z,17.42
2022-12-13T04:23:43.825Z,22.65
2022-12-13T04:26:12.046Z,24.25
2022-12-13T04:28:40.357Z,19.38
2022-12-13T04:31:08.785Z,19.02
2022-12-13T04:33:37.172Z,19.90
2022-12-13T04:36:08.103Z,22.17
2022-12-13T04:38:36.445Z,21.60
2022-12-13T04:41:08.905Z,20.65
2022-12-13T04:43:37.217Z,20.90
2022-12-13T04:46:05.762Z,19.38
2022-12-13T04:48:34.516Z,16.85
2022-12-13T04:51:03.069Z,18.75
2022-12-13T04:53:32.805Z,17.27
2022-12-13T04:56:03.253Z,21.20
2022-12-13T04:58:31.616Z,16.08
2022-12-13T05:00:59.899Z,18.20
2022-12-13T05:03:29.781Z,17.50
2022-12-13T05:05:58.010Z,19.30
2022-12-13T05:08:26.359Z,17.35
2022-12-13T05:10:57.329Z,18.90
2022-12-13T05:13:25.719Z,19.25
2022-12-13T05:15:57.417Z,20.08
2022-12-13T05:18:25.730Z,19.65
2022-12-13T05:20:54.230Z,23.65
2022-12-13T05:23:24.487Z,18.58
2022-12-13T05:25:52.877Z,18.52
2022-12-13T05:28:27.152Z,20.48
2022-12-13T05:30:57.376Z,20.75
2022-12-13T05:33:25.805Z,16.55
2022-12-13T05:35:59.792Z,18.85
2022-12-13T05:38:29.662Z,16.90
2022-12-13T05:40:58.025Z,19.20
2022-12-13T05:43:43.156Z,18.92
2022-12-13T05:46:13.649Z,21.23
2022-12-13T05:48:42.165Z,13.80
2022-12-13T05:51:11.861Z,18.15
2022-12-13T05:53:41.569Z,20.30
2022-12-13T05:56:10.594Z,16.10
2022-12-13T05:58:41.045Z,19.05
2022-12-13T06:01:10.737Z,19.00
2022-12-13T06:03:39.227Z,18.90
2022-12-13T06:06:09.069Z,16.38
2022-12-13T06:08:37.376Z,18.73
2022-12-13T06:11:11.355Z,15.70
2022-12-13T06:13:43.702Z,17.30
2022-12-13T06:16:22.571Z,17.58
2022-12-13T06:19:01.000Z,19.73
2022-12-13T06:21:41.681Z,19.80
2022-12-13T06:24:15.521Z,16.92
2022-12-13T06:26:45.116Z,23.55
2022-12-13T06:29:23.131Z,17.38
2022-12-13T06:32:01.791Z,18.98
2022-12-13T06:34:32.640Z,19.50
2022-12-13T06:37:01.233Z,15.48
2022-12-13T06:39:32.313Z,17.42
2022-12-13T06:42:03.644Z,16.98
2022-12-13T06:44:33.287Z,20.02
2022-12-13T06:47:11.739Z,21.75
2022-12-13T06:49:42.917Z,16.30
2022-12-13T06:52:12.954Z,16.27
2022-12-13T06:54:41.508Z,22.33
2022-12-13T06:57:10.449Z,17.98
2022-12-13T06:59:40.518Z,22.38
2022-12-13T07:02:24.234Z,19.17
2022-12-13T07:04:55.540Z,16.48
2022-12-13T07:07:24.527Z,18.20
2022-12-13T07:09:53.191Z,21.33
2022-12-13T07:12:21.641Z,19.55
2022-12-13T07:14:51.410Z,28.20
2022-12-13T07:17:33.447Z,24.33
2022-12-13T07:20:09.309Z,19.45
2022-12-13T07:22:43.253Z,18.02
2022-12-13T07:25:28.254Z,18.85
2022-12-13T07:28:01.413Z,17.88
2022-12-13T07:30:32.806Z,19.17
2022-12-13T07:33:01.964Z,20.80
2022-12-13T07:35:30.808Z,20.00
2022-12-13T07:38:05.136Z,18.25
2022-12-13T07:40:34.776Z,20.75
2022-12-13T07:43:03.073Z,17.77
2022-12-13T07:45:32.801Z,20.42
2022-12-13T07:48:05.186Z,17.55
2022-12-13T07:50:37.329Z,24.40
2022-12-13T07:53:06.936Z,23.48
2022-12-13T07:55:35.432Z,17.65
2022-12-13T07:58:07.985Z,20.67
2022-12-13T08:00:37.867Z,21.10
2022-12-13T08:03:06.648Z,20.65
2022-12-13T08:05:38.606Z,24.80
2022-12-13T08:08:08.822Z,19.10
2022-12-13T08:10:37.478Z,26.60
2022-12-13T08:13:05.854Z,22.35
2022-12-13T08:15:34.123Z,24.05
2022-12-13T08:18:04.140Z,21.27
2022-12-13T08:20:32.537Z,20.98
2022-12-13T08:23:01.946Z,17.77
2022-12-13T08:25:31.307Z,19.75
2022-12-13T08:28:02.166Z,18.40
2022-12-13T08:30:32.301Z,23.83
2022-12-13T08:33:04.861Z,24.27
2022-12-13T08:35:35.373Z,22.80
2022-12-13T08:38:04.425Z,19.40
2022-12-13T08:40:32.720Z,24.45
2022-12-13T08:43:00.960Z,18.98
2022-12-13T08:45:29.846Z,19.83
2022-12-13T08:47:59.286Z,18.50
2022-12-13T08:50:27.655Z,19.33
2022-12-13T08:52:57.344Z,23.52
2022-12-13T08:55:31.494Z,23.85
2022-12-13T08:58:04.821Z,18.65
2022-12-13T09:00:36.289Z,22.90
2022-12-13T09:03:05.259Z,20.25
2022-12-13T09:05:35.115Z,16.17
2022-12-13T09:08:24.066Z,20.83
2022-12-13T09:11:00.465Z,23.48
2022-12-13T09:13:31.496Z,29.77
2022-12-13T09:16:01.631Z,19.17
2022-12-13T09:18:34.909Z,18.95
2022-12-13T09:21:11.410Z,18.40
2022-12-13T09:23:45.639Z,17.63
2022-12-13T09:26:15.815Z,21.05
2022-12-13T09:28:44.188Z,24.80
2022-12-13T09:31:13.817Z,19.45
2022-12-13T09:33:42.352Z,20.02
2022-12-13T09:36:13.452Z,20.17
2022-12-13T09:38:43.172Z,20.25
2022-12-13T09:41:20.207Z,20.98
2022-12-13T09:43:50.666Z,20.65
2022-12-13T09:46:34.929Z,21.05
2022-12-13T09:49:23.022Z,18.00
2022-12-13T09:52:10.235Z,20.25
2022-12-13T09:54:48.175Z,17.38
2022-12-13T09:57:31.423Z,28.80
2022-12-13T10:00:05.973Z,22.10
2022-12-13T10:02:34.257Z,18.17
2022-12-13T10:05:22.665Z,21.25
2022-12-13T10:07:53.039Z,20.35
2022-12-13T10:10:22.902Z,21.95
2022-12-13T10:12:59.072Z,21.02
2022-12-13T10:15:27.338Z,20.50
2022-12-13T10:17:56.114Z,17.67
2022-12-13T10:20:28.385Z,18.05
2022-12-13T10:23:31.455Z,19.92
2022-12-13T10:25:51.552Z,19.90
2022-12-13T10:28:20.868Z,20.85
2022-12-13T10:30:49.663Z,23.13
2022-12-13T10:33:25.506Z,17.08
2022-12-13T10:36:09.286Z,20.90
2022-12-13T10:38:40.877Z,20.83
2022-12-13T10:41:32.113Z,22.55
2022-12-13T10:44:25.555Z,19.75
2022-12-13T10:47:17.145Z,19.75
2022-12-13T10:49:51.967Z,17.70
2022-12-13T10:52:31.008Z,19.58
2022-12-13T10:55:03.918Z,19.27
2022-12-13T10:57:33.728Z,19.45
2022-12-13T11:00:02.070Z,20.20
2022-12-13T11:02:33.738Z,17.88
2022-12-13T11:05:23.274Z,15.70
2022-12-13T11:07:51.842Z,15.23
2022-12-13T11:10:27.622Z,20.70
2022-12-13T11:13:01.712Z,18.65
2022-12-13T11:15:31.972Z,21.42
2022-12-13T11:18:02.291Z,17.55
2022-12-13T11:20:32.888Z,18.58
2022-12-13T11:23:03.047Z,16.52
2022-12-13T11:25:34.369Z,19.38
2022-12-13T11:28:27.079Z,14.73
2022-12-13T11:31:03.642Z,15.15
2022-12-13T11:33:36.777Z,17.88
2022-12-13T11:36:25.331Z,15.25
2022-12-13T11:39:11.750Z,13.80
2022-12-13T11:41:42.234Z,19.65
2022-12-13T11:44:15.181Z,13.68
2022-12-13T11:46:44.736Z,18.77
2022-12-13T11:49:17.876Z,17.90
2022-12-13T11:51:50.114Z,20.50
2022-12-13T11:54:24.516Z,17.20
2022-12-13T11:57:00.319Z,16.90
2022-12-13T11:59:43.470Z,15.02
2022-12-13T12:02:17.820Z,15.95
2022-12-13T12:04:51.541Z,21.30
2022-12-13T12:07:34.284Z,17.63
2022-12-13T12:10:12.966Z,13.27
2022-12-13T12:12:42.637Z,15.25
2022-12-13T12:15:16.925Z,15.77
2022-12-13T12:17:45.343Z,14.98
2022-12-13T12:20:23.546Z,20.98
2022-12-13T12:22:59.154Z,23.23
2022-12-13T12:25:31.873Z,21.05
2022-12-13T12:28:06.394Z,15.55
2022-12-13T12:30:44.721Z,14.93
2022-12-13T12:33:20.603Z,16.40
2022-12-13T12:36:22.990Z,14.02
2022-12-13T12:39:40.370Z,14.52
2022-12-13T12:42:50.206Z,22.50
2022-12-13T12:45:55.705Z,15.38
2022-12-13T12:51:29.355Z,16.92
2022-12-13T12:54:10.694Z,18.45
2022-12-13T12:56:42.062Z,14.70
2022-12-13T12:59:15.288Z,17.52
2022-12-13T13:01:57.215Z,17.77
2022-12-13T13:04:28.544Z,17.92
2022-12-13T13:07:01.812Z,17.25
2022-12-13T13:09:30.650Z,16.30
2022-12-13T13:11:58.925Z,14.68
2022-12-13T13:14:31.021Z,10.43
2022-12-13T13:17:00.963Z,18.40
2022-12-13T13:19:42.863Z,12.82
2022-12-13T13:22:32.280Z,14.13
2022-12-13T13:25:26.774Z,17.17
2022-12-13T13:28:05.353Z,13.57
2022-12-13T13:30:33.872Z,13.82
2022-12-13T13:33:03.527Z,14.48
2022-12-13T13:35:53.627Z,11.80
2022-12-13T13:39:01.022Z,14.55
2022-12-13T13:41:56.534Z,18.75
2022-12-13T13:45:19.611Z,16.27
2022-12-13T13:48:25.533Z,18.40
2022-12-13T13:51:22.530Z,25.38
2022-12-13T13:54:37.181Z,19.88
2022-12-13T13:58:08.144Z,16.92
2022-12-13T14:00:42.478Z,29.77
2022-12-13T14:03:50.691Z,21.13
2022-12-13T14:06:49.362Z,21.63
2022-12-13T14:09:51.638Z,15.43
2022-12-13T14:13:13.141Z,15.35
2022-12-13T14:16:33.958Z,16.13
2022-12-13T14:19:20.398Z,17.67
2022-12-13T14:22:06.125Z,20.27
2022-12-13T14:24:44.736Z,15.65
2022-12-13T14:27:23.793Z,15.07
2022-12-13T14:29:58.069Z,18.52
2022-12-13T14:32:28.470Z,14.35
2022-12-13T14:34:59.778Z,19.83
2022-12-13T14:37:57.601Z,12.00
2022-12-13T14:40:29.740Z,18.65
2022-12-13T14:42:58.013Z,20.85
2022-12-13T14:45:29.596Z,17.45
2022-12-13T14:47:59.213Z,18.42
2022-12-13T14:50:30.069Z,15.82
2022-12-13T14:52:58.710Z,53.28
2022-12-13T14:55:30.320Z,32.88
2022-12-13T14:58:02.012Z,16.33
2022-12-13T15:00:33.338Z,18.35
2022-12-13T15:03:02.762Z,30.08
2022-12-13T15:05:35.417Z,20.23
2022-12-13T15:08:10.880Z,21.45
2022-12-13T15:10:42.093Z,21.67
2022-12-13T15:13:26.215Z,18.10
2022-12-13T15:16:00.867Z,22.38
2022-12-13T15:18:29.693Z,20.10
2022-12-13T15:20:59.419Z,17.88
2022-12-13T15:23:30.824Z,20.83
2022-12-13T15:26:00.651Z,22.55
2022-12-13T15:28:30.422Z,19.90
2022-12-13T15:30:59.600Z,22.30
2022-12-13T15:33:34.161Z,23.02
2022-12-13T15:36:09.742Z,20.38
2022-12-13T15:38:41.089Z,20.90
2022-12-13T15:41:16.974Z,30.08
2022-12-13T15:43:46.622Z,27.42
2022-12-13T15:46:14.907Z,25.30
2022-12-13T15:48:48.045Z,23.75
2022-12-13T15:51:28.766Z,22.05
2022-12-13T15:54:07.996Z,21.30
2022-12-13T15:56:37.558Z,20.92
2022-12-13T15:59:06.344Z,18.38
2022-12-13T16:01:36.443Z,20.50
2022-12-13T16:04:04.995Z,26.38
2022-12-13T16:06:34.801Z,17.85
2022-12-13T16:09:04.730Z,17.48
2022-12-13T16:11:34.635Z,19.98
2022-12-13T16:14:38.051Z,22.50
2022-12-13T16:17:10.203Z,18.63
2022-12-13T16:19:38.446Z,19.50
2022-12-13T16:22:08.987Z,19.73
2022-12-13T16:24:37.792Z,20.20
2022-12-13T16:27:08.455Z,24.05
2022-12-13T16:29:37.474Z,19.42
2022-12-13T16:32:08.495Z,24.48
2022-12-13T16:34:37.583Z,20.88
2022-12-13T16:37:08.731Z,20.25
2022-12-13T16:39:37.523Z,17.55
2022-12-13T16:42:06.102Z,20.15
2022-12-13T16:44:35.900Z,36.90
2022-12-13T16:47:12.237Z,36.30
2022-12-13T16:49:47.169Z,41.10
2022-12-13T16:52:19.119Z,33.38
2022-12-13T16:54:48.357Z,33.03
2022-12-13T16:57:16.664Z,50.28
2022-12-13T16:59:44.985Z,39.22
2022-12-13T17:02:15.509Z,34.55
2022-12-13T17:04:43.784Z,41.53
2022-12-13T17:07:11.988Z,23.08
2022-12-13T17:09:42.424Z,34.60
2022-12-13T17:12:11.149Z,37.15
2022-12-13T17:14:39.677Z,34.22
2022-12-13T17:17:10.590Z,29.70
2022-12-13T17:19:41.130Z,61.45
2022-12-13T17:22:09.398Z,97.90
2022-12-13T17:24:38.365Z,100.80
2022-12-13T17:27:08.001Z,103.65
2022-12-13T17:29:36.251Z,99.88
2022-12-13T17:32:04.863Z,79.38
2022-12-13T17:34:33.128Z,264.83
2022-12-13T17:37:05.638Z,141.68
2022-12-13T17:39:37.160Z,85.60
2022-12-13T17:42:07.167Z,43.08
2022-12-13T17:44:35.562Z,27.60
2022-12-13T17:47:03.898Z,26.20
2022-12-13T17:49:32.171Z,22.13
2022-12-13T17:52:01.231Z,26.52
2022-12-13T17:54:29.647Z,23.95
2022-12-13T17:56:57.953Z,16.50
2022-12-13T17:59:28.261Z,19.48
2022-12-13T18:01:57.105Z,16.38
2022-12-13T18:04:25.476Z,18.90
2022-12-13T18:06:53.746Z,19.42
2022-12-13T18:09:22.018Z,24.92
2022-12-13T18:11:50.308Z,21.80
2022-12-13T18:14:18.537Z,23.88
2022-12-13T18:16:48.642Z,23.55
2022-12-13T18:19:16.879Z,22.00
2022-12-13T18:21:45.188Z,19.77
2022-12-13T18:24:13.464Z,17.17
2022-12-13T18:26:41.883Z,20.67
2022-12-13T18:29:10.327Z,19.88
2022-12-13T18:31:38.742Z,24.08
2022-12-13T18:34:08.608Z,27.23
2022-12-13T18:36:36.990Z,29.80
2022-12-13T18:39:05.568Z,73.35
2022-12-13T18:41:33.947Z,25.25
2022-12-13T18:44:03.701Z,20.15
2022-12-13T18:46:35.367Z,20.25
2022-12-13T18:49:03.826Z,21.13
2022-12-13T18:51:33.557Z,18.60
2022-12-13T18:54:01.906Z,22.00
2022-12-13T18:56:30.215Z,26.30
2022-12-13T18:58:59.412Z,32.63
2022-12-13T19:01:28.555Z,24.60
2022-12-13T19:03:57.096Z,25.52
2022-12-13T19:06:26.722Z,22.20
2022-12-13T19:08:57.582Z,22.85
2022-12-13T19:11:26.164Z,21.85
2022-12-13T19:13:54.620Z,18.88
2022-12-13T19:16:23.830Z,23.48
2022-12-13T19:18:52.161Z,22.15
2022-12-13T19:21:21.812Z,24.23
2022-12-13T19:23:56.980Z,21.85
2022-12-13T19:26:28.071Z,21.08
2022-12-13T19:28:57.093Z,23.35
2022-12-13T19:31:30.522Z,23.67
2022-12-13T19:33:59.840Z,14.93
2022-12-13T19:36:28.173Z,23.35
2022-12-13T19:38:56.872Z,20.13
2022-12-13T19:41:26.557Z,18.33
2022-12-13T19:43:54.863Z,27.20
2022-12-13T19:46:23.232Z,23.50
2022-12-13T19:48:51.664Z,21.27
2022-12-13T19:51:19.967Z,23.60
2022-12-13T19:53:48.260Z,21.88
2022-12-13T19:56:17.958Z,19.02
2022-12-13T19:58:48.184Z,23.50
2022-12-13T20:01:16.607Z,22.65
2022-12-13T20:03:46.301Z,25.27
2022-12-13T20:06:15.964Z,27.20
2022-12-13T20:08:44.425Z,28.10
2022-12-13T20:11:14.881Z,21.10
2022-12-13T20:13:43.170Z,19.63
2022-12-13T20:16:17.843Z,21.15
2022-12-13T20:18:46.370Z,22.38
2022-12-13T20:21:15.699Z,24.10
2022-12-13T20:23:48.597Z,23.48
2022-12-13T20:26:20.618Z,19.50
2022-12-13T20:28:49.522Z,23.58
2022-12-13T20:31:20.575Z,25.17
2022-12-13T20:33:48.987Z,24.60
2022-12-13T20:36:26.717Z,22.17
2022-12-13T20:38:56.499Z,20.65
2022-12-13T20:41:25.380Z,20.58
2022-12-13T20:43:54.199Z,20.50
2022-12-13T20:46:24.438Z,21.77
2022-12-13T20:48:53.315Z,17.92
2022-12-13T20:51:23.171Z,20.02
2022-12-13T20:53:52.006Z,25.17
2022-12-13T20:56:22.470Z,22.35
2022-12-13T20:58:52.018Z,19.73
2022-12-13T21:01:21.407Z,22.38
2022-12-13T21:03:51.267Z,19.95
2022-12-13T21:06:19.576Z,21.25
2022-12-13T21:08:54.339Z,19.15
2022-12-13T21:11:27.067Z,19.48
2022-12-13T21:14:05.462Z,15.13
2022-12-13T21:16:39.599Z,19.67
2022-12-13T21:19:10.075Z,18.83
2022-12-13T21:21:38.508Z,19.10
2022-12-13T21:24:07.997Z,17.45
2022-12-13T21:26:36.718Z,19.38
2022-12-13T21:29:07.353Z,22.13
2022-12-13T21:31:36.163Z,17.58
2022-12-13T21:34:05.637Z,21.88
2022-12-13T21:36:36.240Z,19.92
2022-12-13T21:39:07.409Z,20.60
2022-12-13T21:41:35.672Z,23.67
2022-12-13T21:44:03.962Z,23.10
2022-12-13T21:46:55.210Z,29.40
2022-12-13T21:49:20.675Z,22.33
2022-12-13T21:51:50.381Z,22.95
2022-12-13T21:54:19.025Z,26.50
2022-12-13T21:57:04.661Z,21.02
2022-12-13T21:59:32.946Z,23.77
2022-12-13T22:02:15.892Z,22.15
2022-12-13T22:04:45.679Z,25.33
2022-12-13T22:07:16.739Z,23.92
2022-12-13T22:09:45.126Z,20.70
2022-12-13T22:12:21.020Z,23.40
2022-12-13T22:14:49.502Z,20.48
2022-12-13T22:17:18.049Z,21.13
2022-12-13T22:19:48.527Z,23.50
2022-12-13T22:22:19.085Z,23.98
2022-12-13T22:24:53.226Z,25.10
2022-12-13T22:27:23.713Z,22.80
2022-12-13T22:29:52.686Z,20.73
2022-12-13T22:32:21.158Z,25.25
2022-12-13T22:34:49.491Z,23.60
2022-12-13T22:37:19.268Z,25.55
2022-12-13T22:39:47.580Z,21.98
2022-12-13T22:42:15.909Z,21.23
2022-12-13T22:44:44.238Z,24.25
2022-12-13T22:47:12.512Z,24.15
2022-12-13T22:49:41.052Z,21.70
2022-12-13T22:52:10.347Z,28.52
2022-12-13T22:54:41.176Z,25.67
2022-12-13T22:57:09.466Z,21.60
2022-12-13T22:59:37.813Z,27.02
2022-12-13T23:02:06.434Z,23.40
2022-12-13T23:04:34.876Z,24.42
2022-12-13T23:07:03.196Z,27.83
2022-12-13T23:09:31.498Z,31.13
2022-12-13T23:12:18.975Z,32.10
2022-12-13T23:14:47.280Z,29.15
2022-12-13T23:17:15.580Z,32.25
2022-12-13T23:19:49.559Z,34.03
2022-12-13T23:22:22.027Z,30.48
2022-12-13T23:24:50.673Z,27.77
2022-12-13T23:27:21.205Z,28.50
2022-12-13T23:29:50.375Z,30.63
2022-12-13T23:32:18.631Z,32.63
2022-12-13T23:34:46.900Z,31.13
2022-12-13T23:37:15.181Z,27.55
2022-12-13T23:39:43.478Z,31.27
2022-12-13T23:42:11.818Z,33.08
2022-12-13T23:44:41.512Z,29.67
2022-12-13T23:47:10.126Z,29.27
2022-12-13T23:49:38.456Z,24.10
2022-12-13T23:52:06.738Z,31.70
2022-12-13T23:54:34.968Z,25.35
2022-12-13T23:57:03.326Z,28.38
2022-12-13T23:59:31.632Z,23.88
